Coalvale, Kansas
Current Conditions -  °F | °C
As of 4:35 PM on Thursday 23 Oct 2014 (Local Time) from KPTS Reporting Station
Overcast Overcast  
Wind Chill: 61°   Ceiling: 1100
Heat Index: 61°   Visibility: 10mi
Dew Point: 60°   Wind: 8mph
Humidity: 95%   Direction: 240°WSW
Pressure: 30.09"   Gusts: NA
Location:  37.6277°N, 94.7013°W
Report Text: KPTS 232135Z AUTO 24007KT 10SM OVC011 16/15 A3009 RMK AO2 T01620154
Loading
Personal Weather Stations






























Interactive Weather Map
Tropical Storm Tracking
New forecast layout! Learn more

10-Day Weather Forecast

Advertisements
Track Severe Weather on mobile